createdAt,value
2022-07-29T00:01:50.503Z,67.40
2022-07-29T00:04:17.930Z,67.90
2022-07-29T00:06:45.179Z,67.40
2022-07-29T00:09:12.247Z,67.20
2022-07-29T00:11:39.302Z,70.10
2022-07-29T00:14:06.441Z,68.30
2022-07-29T00:16:33.406Z,69.10
2022-07-29T00:19:02.323Z,69.40
2022-07-29T00:21:29.688Z,69.90
2022-07-29T00:23:56.806Z,69.20
2022-07-29T00:26:23.815Z,71.50
2022-07-29T00:28:50.881Z,69.60
2022-07-29T00:31:17.856Z,70.10
2022-07-29T00:33:44.954Z,70.30
2022-07-29T00:36:12.036Z,70.60
2022-07-29T00:38:39.121Z,70.70
2022-07-29T00:41:06.100Z,69.20
2022-07-29T00:43:33.327Z,70.20
2022-07-29T00:46:00.306Z,70.20
2022-07-29T00:48:27.285Z,71.10
2022-07-29T00:50:54.763Z,71.20
2022-07-29T00:53:21.870Z,73.10
2022-07-29T00:55:49.061Z,70.30
2022-07-29T00:58:16.108Z,71.90
2022-07-29T01:00:43.688Z,72.20
2022-07-29T01:03:12.580Z,71.30
2022-07-29T01:05:49.900Z,72.30
2022-07-29T01:08:19.131Z,71.90
2022-07-29T01:10:46.157Z,70.50
2022-07-29T01:13:13.176Z,71.10
2022-07-29T01:15:49.198Z,73.20
2022-07-29T01:18:29.779Z,72.60
2022-07-29T01:21:20.296Z,73.80
2022-07-29T01:23:53.261Z,75.10
2022-07-29T01:26:29.998Z,72.40
2022-07-29T01:29:24.038Z,70.70
2022-07-29T01:32:01.350Z,75.00
2022-07-29T01:34:45.047Z,74.20
2022-07-29T01:37:33.900Z,72.50
2022-07-29T01:40:01.124Z,75.10
2022-07-29T01:42:40.027Z,72.00
2022-07-29T01:45:11.902Z,74.00
2022-07-29T01:47:43.610Z,72.30
2022-07-29T01:50:14.061Z,73.00
2022-07-29T01:52:47.803Z,72.90
2022-07-29T01:55:16.083Z,72.40
2022-07-29T01:57:45.288Z,72.20
2022-07-29T02:00:12.989Z,72.00
2022-07-29T02:02:41.450Z,72.00
2022-07-29T02:05:09.291Z,72.20
2022-07-29T02:07:36.275Z,72.20
2022-07-29T02:10:03.909Z,72.20
2022-07-29T02:12:30.898Z,72.50
2022-07-29T02:14:57.866Z,73.30
2022-07-29T02:17:33.695Z,72.40
2022-07-29T02:20:03.232Z,74.10
2022-07-29T02:22:31.738Z,72.90
2022-07-29T02:24:59.315Z,72.70
2022-07-29T02:27:28.342Z,72.20
2022-07-29T02:29:55.444Z,74.10
2022-07-29T02:32:22.900Z,73.20
2022-07-29T02:34:50.338Z,73.40
2022-07-29T02:37:17.331Z,73.70
2022-07-29T02:39:45.109Z,73.50
2022-07-29T02:42:14.148Z,73.70
2022-07-29T02:44:41.148Z,74.00
2022-07-29T02:47:12.904Z,73.80
2022-07-29T02:49:59.161Z,73.70
2022-07-29T02:52:28.728Z,73.90
2022-07-29T02:55:04.097Z,74.40
2022-07-29T02:57:53.998Z,76.10
2022-07-29T03:00:23.152Z,75.70
2022-07-29T03:02:52.494Z,74.60
2022-07-29T03:05:20.891Z,76.00
2022-07-29T03:07:52.396Z,75.70
2022-07-29T03:10:19.593Z,75.00
2022-07-29T03:12:46.662Z,74.60
2022-07-29T03:15:13.760Z,75.20
2022-07-29T03:17:40.791Z,75.60
2022-07-29T03:20:11.694Z,76.00
2022-07-29T03:22:47.834Z,77.30
2022-07-29T03:25:15.796Z,76.70
2022-07-29T03:27:43.138Z,76.20
2022-07-29T03:30:10.685Z,75.90
2022-07-29T03:32:38.374Z,75.90
2022-07-29T03:35:07.654Z,76.10
2022-07-29T03:37:34.768Z,76.90
2022-07-29T03:40:02.622Z,77.20
2022-07-29T03:42:34.323Z,76.90
2022-07-29T03:45:03.586Z,78.60
2022-07-29T03:47:43.568Z,77.30
2022-07-29T03:50:17.893Z,76.20
2022-07-29T03:52:45.553Z,76.20
2022-07-29T03:55:12.895Z,78.00
2022-07-29T03:57:39.999Z,77.60
2022-07-29T04:00:07.683Z,77.60
2022-07-29T04:02:34.811Z,77.60
2022-07-29T04:05:01.980Z,77.60
2022-07-29T04:07:29.112Z,78.10
2022-07-29T04:09:56.143Z,76.70
2022-07-29T04:12:23.324Z,76.60
2022-07-29T04:14:51.242Z,76.90
2022-07-29T04:17:18.245Z,78.00
2022-07-29T04:19:45.226Z,78.10
2022-07-29T04:22:12.275Z,76.80
2022-07-29T04:24:42.850Z,77.00
2022-07-29T04:27:11.671Z,77.20
2022-07-29T04:29:56.571Z,77.30
2022-07-29T04:32:24.750Z,78.20
2022-07-29T04:34:51.882Z,78.90
2022-07-29T04:37:18.951Z,77.50
2022-07-29T04:39:46.023Z,77.70
2022-07-29T04:42:13.405Z,78.00
2022-07-29T04:44:43.035Z,78.00
2022-07-29T04:47:10.441Z,78.10
2022-07-29T04:49:40.564Z,82.70
2022-07-29T04:52:07.797Z,79.50
2022-07-29T04:54:34.736Z,79.50
2022-07-29T04:57:01.749Z,79.90
2022-07-29T04:59:28.775Z,78.60
2022-07-29T05:01:55.845Z,78.50
2022-07-29T05:04:22.967Z,78.80
2022-07-29T05:06:50.042Z,79.60
2022-07-29T05:09:17.097Z,78.40
2022-07-29T05:11:44.086Z,78.50
2022-07-29T05:14:11.035Z,78.70
2022-07-29T05:16:38.058Z,78.80
2022-07-29T05:19:05.028Z,79.80
2022-07-29T05:21:32.018Z,79.50
2022-07-29T05:23:59.028Z,79.10
2022-07-29T05:26:26.028Z,78.90
2022-07-29T05:28:53.033Z,79.40
2022-07-29T05:31:20.113Z,79.60
2022-07-29T05:33:47.163Z,79.30
2022-07-29T05:36:14.194Z,78.60
2022-07-29T05:38:41.127Z,77.60
2022-07-29T05:41:08.169Z,77.90
2022-07-29T05:43:35.089Z,76.90
2022-07-29T05:46:02.159Z,76.40
2022-07-29T05:48:29.219Z,74.90
2022-07-29T05:50:56.204Z,74.00
2022-07-29T05:53:23.448Z,69.50
2022-07-29T05:55:50.505Z,70.00
2022-07-29T05:58:17.662Z,69.40
2022-07-29T06:00:44.756Z,69.90
2022-07-29T06:03:11.800Z,67.80
2022-07-29T06:05:38.800Z,67.60
2022-07-29T06:08:08.812Z,67.90
2022-07-29T06:10:36.203Z,65.90
2022-07-29T06:13:03.214Z,63.70
2022-07-29T06:15:30.261Z,66.60
2022-07-29T06:17:59.999Z,65.70
2022-07-29T06:20:31.753Z,64.50
2022-07-29T06:22:59.325Z,60.50
2022-07-29T06:25:26.561Z,60.70
2022-07-29T06:27:53.631Z,60.80
2022-07-29T06:30:20.760Z,60.60
2022-07-29T06:32:48.265Z,60.00
2022-07-29T06:35:39.028Z,61.10
2022-07-29T06:38:08.426Z,53.10
2022-07-29T06:41:01.671Z,57.10
2022-07-29T06:43:51.959Z,56.50
2022-07-29T06:46:22.086Z,50.80
2022-07-29T06:48:49.604Z,57.20
2022-07-29T06:51:23.115Z,57.20
2022-07-29T06:53:59.591Z,58.10
2022-07-29T06:56:29.511Z,57.10
2022-07-29T06:58:56.526Z,53.90
2022-07-29T07:01:23.604Z,57.80
2022-07-29T07:03:50.724Z,56.00
2022-07-29T07:06:17.804Z,55.10
2022-07-29T07:08:44.896Z,58.20
2022-07-29T07:11:12.390Z,55.70
2022-07-29T07:13:39.467Z,58.30
2022-07-29T07:16:06.603Z,55.90
2022-07-29T07:18:33.622Z,51.60
2022-07-29T07:21:00.685Z,50.90
2022-07-29T07:23:27.665Z,49.70
2022-07-29T07:25:54.784Z,54.70
2022-07-29T07:28:24.889Z,53.70
2022-07-29T07:30:52.805Z,52.70
2022-07-29T07:33:20.467Z,53.10
2022-07-29T07:35:47.764Z,53.70
2022-07-29T07:38:14.855Z,55.10
2022-07-29T07:40:42.083Z,55.80
2022-07-29T07:43:09.460Z,56.40
2022-07-29T08:06:20.057Z,40.60
2022-07-29T08:25:44.559Z,41.40
2022-07-29T08:28:22.070Z,44.80
2022-07-29T09:33:38.947Z,27.80
2022-07-29T11:42:03.141Z,32.30
2022-07-29T12:05:51.803Z,31.70
2022-07-29T12:08:24.385Z,31.80
2022-07-29T12:36:09.412Z,31.20
2022-07-29T12:39:58.180Z,30.80
2022-07-29T13:28:45.905Z,29.10
2022-07-29T13:35:34.186Z,30.20
2022-07-29T13:38:30.830Z,29.20
2022-07-29T14:02:43.803Z,29.70
2022-07-29T14:10:10.262Z,29.20
2022-07-29T14:19:44.103Z,30.20
2022-07-29T14:22:42.650Z,29.80
2022-07-29T14:29:37.201Z,29.30
2022-07-29T14:39:52.649Z,29.00
2022-07-29T15:12:07.428Z,27.60
2022-07-29T15:14:38.778Z,29.50
2022-07-29T15:17:06.394Z,28.80
2022-07-29T15:19:33.899Z,29.20
2022-07-29T15:22:01.430Z,29.40
2022-07-29T15:24:40.481Z,28.20
2022-07-29T15:27:48.870Z,28.40
2022-07-29T15:30:33.619Z,27.70
2022-07-29T15:33:05.161Z,29.00
2022-07-29T15:35:32.960Z,29.00
2022-07-29T15:38:00.282Z,28.20
2022-07-29T15:40:27.588Z,28.10
2022-07-29T15:42:54.906Z,28.50
2022-07-29T15:45:21.887Z,28.60
2022-07-29T15:47:48.918Z,27.80
2022-07-29T15:50:16.912Z,28.10
2022-07-29T15:52:44.658Z,28.40
2022-07-29T15:55:11.621Z,28.30
2022-07-29T15:57:38.631Z,28.10
2022-07-29T16:00:06.148Z,28.10
2022-07-29T16:02:36.160Z,27.80
2022-07-29T16:05:03.079Z,28.30
2022-07-29T16:07:31.382Z,28.40
2022-07-29T16:09:59.651Z,28.00
2022-07-29T16:12:26.600Z,28.10
2022-07-29T16:14:53.616Z,28.10
2022-07-29T16:17:20.792Z,27.70
2022-07-29T16:19:48.143Z,28.00
2022-07-29T16:22:15.310Z,27.70
2022-07-29T16:24:42.394Z,28.00
2022-07-29T16:27:09.588Z,28.20
2022-07-29T16:29:37.505Z,28.20
2022-07-29T16:32:05.902Z,28.10
2022-07-29T16:34:32.965Z,28.20
2022-07-29T16:37:00.373Z,28.20
2022-07-29T16:39:27.634Z,28.50
2022-07-29T16:41:58.308Z,28.10
2022-07-29T16:44:27.444Z,28.20
2022-07-29T16:46:56.086Z,28.40
2022-07-29T16:49:25.978Z,27.70
2022-07-29T16:51:53.905Z,27.70
2022-07-29T16:54:20.907Z,27.10
2022-07-29T16:56:47.892Z,28.10
2022-07-29T16:59:14.864Z,27.20
2022-07-29T17:01:41.878Z,27.70
2022-07-29T17:04:09.328Z,27.80
2022-07-29T17:06:40.269Z,29.60
2022-07-29T17:09:08.015Z,30.50
2022-07-29T17:11:52.373Z,30.20
2022-07-29T19:04:47.400Z,44.30
2022-07-29T19:07:14.360Z,42.40
2022-07-29T19:09:43.643Z,42.30
2022-07-29T19:12:16.587Z,42.10
2022-07-29T19:14:44.496Z,44.80
2022-07-29T19:17:11.503Z,44.30
2022-07-29T19:19:38.456Z,43.50
2022-07-29T19:22:05.584Z,44.10
2022-07-29T19:24:32.535Z,44.10
2022-07-29T19:26:59.967Z,44.70
2022-07-29T19:29:27.592Z,44.90
2022-07-29T19:31:54.740Z,45.30
2022-07-29T19:34:21.788Z,45.30
2022-07-29T19:36:48.780Z,45.10
2022-07-29T19:39:15.859Z,45.70
2022-07-29T19:41:42.839Z,45.40
2022-07-29T19:44:11.423Z,45.80
2022-07-29T19:46:38.780Z,45.60
2022-07-29T19:49:10.153Z,46.40
2022-07-29T19:51:37.312Z,47.60
2022-07-29T19:54:04.359Z,47.30
2022-07-29T19:56:32.041Z,46.40
2022-07-29T19:59:00.730Z,46.40
2022-07-29T20:01:29.003Z,46.90
2022-07-29T20:03:56.010Z,47.70
2022-07-29T20:06:23.253Z,47.60
2022-07-29T20:08:50.181Z,47.20
2022-07-29T20:11:17.236Z,48.20
2022-07-29T20:13:44.190Z,48.00
2022-07-29T20:16:11.219Z,48.40
2022-07-29T20:18:38.365Z,49.10
2022-07-29T20:21:05.362Z,49.30
2022-07-29T20:23:33.386Z,49.40
2022-07-29T20:26:00.739Z,49.30
2022-07-29T20:28:27.829Z,49.30
2022-07-29T20:30:54.943Z,49.30
2022-07-29T20:33:21.980Z,49.50
2022-07-29T20:35:49.031Z,49.70
2022-07-29T20:38:18.306Z,50.10
2022-07-29T20:40:45.582Z,50.10
2022-07-29T20:43:12.707Z,55.50
2022-07-29T20:45:39.815Z,50.90
2022-07-29T20:48:07.046Z,51.50
2022-07-29T20:50:35.487Z,51.70
2022-07-29T20:53:02.426Z,51.80
2022-07-29T20:55:29.372Z,52.10
2022-07-29T20:57:56.348Z,52.60
2022-07-29T21:00:23.423Z,53.40
2022-07-29T21:02:50.416Z,54.00
2022-07-29T21:05:17.491Z,54.20
2022-07-29T21:07:44.454Z,53.80
2022-07-29T21:10:11.564Z,54.80
2022-07-29T21:12:38.521Z,54.10
2022-07-29T21:15:06.675Z,55.50
2022-07-29T21:17:39.069Z,54.20
2022-07-29T21:20:08.685Z,55.60
2022-07-29T21:22:35.684Z,55.10
2022-07-29T21:25:02.843Z,60.80
2022-07-29T21:27:48.351Z,55.10
2022-07-29T21:30:15.321Z,57.00
2022-07-29T21:32:42.600Z,57.20
2022-07-29T21:35:22.358Z,56.30
2022-07-29T21:37:58.985Z,57.00
2022-07-29T21:40:26.003Z,56.90
2022-07-29T21:42:53.064Z,58.10
2022-07-29T21:45:20.069Z,58.00
2022-07-29T21:47:46.987Z,58.10
2022-07-29T21:50:13.981Z,60.40
2022-07-29T21:52:41.037Z,59.40
2022-07-29T21:55:10.554Z,58.30
2022-07-29T21:57:38.636Z,58.90
2022-07-29T22:00:06.362Z,58.40
2022-07-29T22:02:39.501Z,59.40
2022-07-29T22:05:06.626Z,59.30
2022-07-29T22:07:55.799Z,58.90
2022-07-29T22:10:20.678Z,58.70
2022-07-29T22:12:51.055Z,59.00
2022-07-29T22:15:18.134Z,59.40
2022-07-29T22:17:45.142Z,58.40
2022-07-29T22:20:12.319Z,59.00
2022-07-29T22:22:39.569Z,58.00
2022-07-29T22:25:07.295Z,58.70
2022-07-29T22:27:34.427Z,58.20
2022-07-29T22:30:01.742Z,57.80
2022-07-29T22:32:28.784Z,57.90
2022-07-29T22:34:55.741Z,57.80
2022-07-29T22:37:22.772Z,57.40
2022-07-29T22:39:49.762Z,57.40
2022-07-29T22:42:16.774Z,57.30
2022-07-29T22:44:43.764Z,57.90
2022-07-29T22:47:10.912Z,57.70
2022-07-29T22:49:37.844Z,58.40
2022-07-29T22:52:05.227Z,58.40
2022-07-29T22:54:32.181Z,58.90
2022-07-29T22:56:59.379Z,59.20
2022-07-29T22:59:26.552Z,59.10
2022-07-29T23:01:53.621Z,59.40
2022-07-29T23:04:23.832Z,60.30
2022-07-29T23:06:51.270Z,60.10
2022-07-29T23:09:18.440Z,60.20
2022-07-29T23:11:47.239Z,60.10
2022-07-29T23:14:14.252Z,60.10
2022-07-29T23:16:41.245Z,60.00
2022-07-29T23:19:08.729Z,61.20
2022-07-29T23:21:35.807Z,60.20
2022-07-29T23:24:02.752Z,60.00
2022-07-29T23:26:30.300Z,60.00
2022-07-29T23:28:57.310Z,60.00
2022-07-29T23:31:24.308Z,60.00
2022-07-29T23:33:51.250Z,59.80
2022-07-29T23:36:20.254Z,60.80
2022-07-29T23:38:48.103Z,60.30
2022-07-29T23:41:15.310Z,61.20
2022-07-29T23:43:42.283Z,60.80
2022-07-29T23:46:09.255Z,61.30
2022-07-29T23:48:36.416Z,61.70
2022-07-29T23:51:03.550Z,62.00
2022-07-29T23:53:30.553Z,61.80
2022-07-29T23:55:57.563Z,62.20
2022-07-29T23:58:24.580Z,62.60
